Time;durP1;ratioP1;P1;durP2;ratioP2;P2;SDS_P1;SDS_P2;PMS_P1;PMS_P2;Temp;Humidity;BMP_temperature;BMP_pressure;BME280_temperature;BME280_humidity;BME280_pressure;Samples;Min_cycle;Max_cycle;Signal;HPM_P1;HPM_P2
2023/06/21 00:01:38;;;;;;;13.55;12.27;;;19.30;99.90;;;;;;5041378;28;20041;-83
2023/06/21 00:04:07;;;;;;;12.05;10.73;;;19.30;99.90;;;;;;5048314;28;20136;-83
2023/06/21 00:06:36;;;;;;;13.25;12.15;;;19.30;99.90;;;;;;5040964;28;20044;-82
2023/06/21 00:09:05;;;;;;;11.90;10.80;;;20.00;99.90;;;;;;5042981;28;20086;-83
2023/06/21 00:11:31;;;;;;;15.88;12.80;;;19.40;99.90;;;;;;5026218;28;20076;-83
2023/06/21 00:13:57;;;;;;;13.85;12.45;;;19.40;99.90;;;;;;5039366;28;20570;-83
2023/06/21 00:16:23;;;;;;;15.27;13.70;;;19.30;99.90;;;;;;5056220;28;20044;-83
2023/06/21 00:18:49;;;;;;;13.00;11.75;;;20.50;99.90;;;;;;5043021;28;20432;-83
2023/06/21 00:21:15;;;;;;;16.10;12.65;;;19.30;99.90;;;;;;5058878;28;20028;-83
2023/06/21 00:23:43;;;;;;;19.20;17.15;;;19.80;99.90;;;;;;5057071;28;20047;-83
2023/06/21 00:26:09;;;;;;;17.25;13.55;;;19.40;99.90;;;;;;5039272;28;20041;-82
2023/06/21 00:28:35;;;;;;;13.65;12.30;;;20.40;99.90;;;;;;5057161;28;20047;-83
2023/06/21 00:31:01;;;;;;;14.73;13.15;;;19.40;99.90;;;;;;5042441;28;20036;-83
2023/06/21 00:33:26;;;;;;;17.95;12.45;;;19.40;99.90;;;;;;5060053;28;20116;-83
2023/06/21 00:35:52;;;;;;;14.70;13.30;;;19.40;99.90;;;;;;5052467;28;20040;-83
2023/06/21 00:38:18;;;;;;;16.20;12.45;;;19.40;99.90;;;;;;5059983;28;20063;-83
2023/06/21 00:40:43;;;;;;;14.48;12.98;;;19.50;99.90;;;;;;5056650;28;20049;-83
2023/06/21 00:43:09;;;;;;;15.52;14.02;;;19.40;99.90;;;;;;5054919;28;20056;-82
2023/06/21 00:45:40;;;;;;;20.88;14.63;;;19.50;99.90;;;;;;5056604;28;20141;-83
2023/06/21 00:48:06;;;;;;;19.23;17.30;;;19.40;99.90;;;;;;5058496;28;20097;-82
2023/06/21 00:50:31;;;;;;;15.55;14.00;;;19.30;99.90;;;;;;5056531;28;20043;-82
2023/06/21 00:52:58;;;;;;;18.88;16.55;;;19.30;99.90;;;;;;5056597;28;20029;-82
2023/06/21 00:55:26;;;;;;;14.68;13.18;;;19.30;99.90;;;;;;5056337;28;20484;-83
2023/06/21 00:57:52;;;;;;;17.52;14.77;;;19.30;99.90;;;;;;5055733;28;20128;-82
2023/06/21 01:00:22;;;;;;;18.77;16.80;;;19.30;99.90;;;;;;5055604;28;20525;-82
2023/06/21 01:02:56;;;;;;;19.40;17.35;;;19.30;99.90;;;;;;5058226;28;20037;-82
2023/06/21 01:05:22;;;;;;;;;;;19.30;99.90;;;;;;5058879;28;20144;-83
2023/06/21 01:07:54;;;;;;;21.98;20.02;;;19.30;99.90;;;;;;5055899;28;19921;-82
2023/06/21 01:10:44;;;;;;;19.25;17.23;;;20.20;99.90;;;;;;5055194;28;20385;-82
2023/06/21 01:13:23;;;;;;;20.63;18.70;;;19.30;99.90;;;;;;5032661;28;20043;-83
2023/06/21 01:16:01;;;;;;;21.23;19.00;;;19.30;99.90;;;;;;5058626;28;20033;-83
2023/06/21 01:18:28;;;;;;;20.30;18.20;;;19.30;99.90;;;;;;5041308;28;20051;-83
2023/06/21 01:20:57;;;;;;;23.42;20.88;;;19.30;99.90;;;;;;5063761;28;20472;-82
2023/06/21 01:23:45;;;;;;;21.52;19.42;;;19.30;99.90;;;;;;5045126;28;20037;-82
2023/06/21 01:26:47;;;;;;;20.73;18.73;;;19.30;99.90;;;;;;5050375;28;20580;-83
2023/06/21 01:29:16;;;;;;;20.95;18.95;;;19.20;99.90;;;;;;5048614;28;20056;-82
2023/06/21 01:31:45;;;;;;;21.35;19.27;;;19.20;99.90;;;;;;5057141;28;20528;-83
2023/06/21 01:34:12;;;;;;;22.90;20.02;;;19.20;99.90;;;;;;5057660;28;20494;-82
2023/06/21 01:36:39;;;;;;;21.23;18.95;;;19.20;99.90;;;;;;5056913;28;20063;-82
2023/06/21 01:39:09;;;;;;;24.38;21.88;;;19.20;99.90;;;;;;5053759;28;20037;-83
2023/06/21 01:41:35;;;;;;;25.25;22.70;;;19.10;99.90;;;;;;5055168;28;20136;-83
2023/06/21 01:44:02;;;;;;;22.33;19.95;;;19.10;99.90;;;;;;5022401;28;1062135;-82
2023/06/21 01:46:28;;;;;;;24.65;22.20;;;19.10;99.90;;;;;;5059055;28;20113;-83
2023/06/21 01:48:55;;;;;;;22.42;20.05;;;19.60;99.90;;;;;;5059265;28;20617;-82
2023/06/21 01:51:22;;;;;;;26.05;23.33;;;19.20;99.90;;;;;;5060071;28;20029;-82
2023/06/21 01:53:48;;;;;;;25.63;23.02;;;19.10;99.90;;;;;;5061069;28;20146;-83
2023/06/21 01:56:17;;;;;;;32.35;27.25;;;19.00;99.90;;;;;;5062312;28;20438;-83
2023/06/21 01:58:45;;;;;;;27.13;24.23;;;19.00;99.90;;;;;;5045849;28;20052;-82
2023/06/21 02:01:12;;;;;;;24.98;22.42;;;19.30;99.90;;;;;;5062736;28;20032;-83
2023/06/21 02:03:41;;;;;;;27.13;24.50;;;19.00;99.90;;;;;;5061317;28;20495;-83
2023/06/21 02:06:08;;;;;;;24.40;21.92;;;19.30;99.90;;;;;;5040402;28;20052;-82
2023/06/21 02:08:35;;;;;;;26.85;23.98;;;19.00;99.90;;;;;;5059091;28;20133;-82
2023/06/21 02:11:02;;;;;;;31.02;27.00;;;19.20;99.90;;;;;;5045412;28;20036;-83
2023/06/21 02:13:28;;;;;;;33.00;29.45;;;19.00;99.90;;;;;;5062697;28;20430;-83
2023/06/21 02:15:54;;;;;;;30.13;27.02;;;19.00;99.90;;;;;;5060371;28;20045;-83
2023/06/21 02:18:26;;;;;;;34.90;29.67;;;19.20;99.90;;;;;;5057999;28;20089;-83
2023/06/21 02:20:52;;;;;;;31.60;28.45;;;19.00;99.90;;;;;;5062703;28;20090;-83
2023/06/21 02:23:18;;;;;;;30.38;26.27;;;19.00;99.90;;;;;;5062984;28;20440;-83
2023/06/21 02:25:44;;;;;;;31.60;28.15;;;19.00;99.90;;;;;;5061650;28;20079;-82
2023/06/21 02:28:09;;;;;;;33.03;28.80;;;19.00;99.90;;;;;;5057795;28;20033;-83
2023/06/21 02:30:35;;;;;;;30.50;26.48;;;18.90;99.90;;;;;;5058526;28;20048;-83
2023/06/21 02:33:00;;;;;;;29.80;26.73;;;18.90;99.90;;;;;;5061553;28;20391;-83
2023/06/21 02:35:26;;;;;;;29.25;26.33;;;18.90;99.90;;;;;;5062277;28;20112;-84
2023/06/21 02:37:52;;;;;;;28.02;25.13;;;18.90;99.90;;;;;;5042425;28;20388;-83
2023/06/21 02:40:17;;;;;;;36.85;29.90;;;19.80;99.90;;;;;;5041373;28;20048;-83
2023/06/21 02:42:43;;;;;;;31.83;28.42;;;18.90;99.90;;;;;;5059576;28;20045;-84
2023/06/21 02:45:09;;;;;;;31.83;28.52;;;18.90;99.90;;;;;;5061787;28;20205;-84
2023/06/21 02:47:35;;;;;;;30.60;27.00;;;18.80;99.90;;;;;;5061338;28;20040;-84
2023/06/21 02:50:02;;;;;;;36.38;30.98;;;19.60;99.90;;;;;;5042075;28;20041;-83
2023/06/21 02:52:28;;;;;;;31.25;28.05;;;18.70;99.90;;;;;;5059820;28;20748;-84
2023/06/21 02:54:54;;;;;;;36.17;32.33;;;18.70;99.90;;;;;;5062970;28;20054;-83
2023/06/21 02:57:22;;;;;;;35.38;31.48;;;18.80;99.90;;;;;;5064568;28;20036;-83
2023/06/21 02:59:49;;;;;;;30.45;27.42;;;18.70;99.90;;;;;;5068709;28;20049;-84
2023/06/21 03:02:16;;;;;;;30.05;27.05;;;19.00;99.90;;;;;;5062169;28;20033;-83
2023/06/21 03:04:42;;;;;;;34.60;28.95;;;18.70;99.90;;;;;;5060951;28;20073;-84
2023/06/21 03:07:08;;;;;;;35.67;31.80;;;18.70;99.90;;;;;;5061282;28;20531;-83
2023/06/21 03:09:34;;;;;;;32.97;29.40;;;18.80;99.90;;;;;;5059985;28;20060;-83
2023/06/21 03:12:05;;;;;;;36.63;32.72;;;18.70;99.90;;;;;;5032954;28;20075;-84
2023/06/21 03:14:30;;;;;;;34.67;30.98;;;18.70;99.90;;;;;;5041152;28;20072;-83
2023/06/21 03:16:56;;;;;;;40.50;34.45;;;18.70;99.90;;;;;;5061472;28;20507;-84
2023/06/21 03:19:21;;;;;;;42.60;34.72;;;19.40;99.90;;;;;;5043548;28;20033;-83
2023/06/21 03:21:47;;;;;;;38.97;32.28;;;18.60;99.90;;;;;;5060714;28;20055;-83
2023/06/21 03:24:14;;;;;;;36.63;32.58;;;18.60;99.90;;;;;;5062962;28;20488;-83
2023/06/21 03:26:39;;;;;;;39.05;31.35;;;18.60;99.90;;;;;;5061682;28;20055;-83
2023/06/21 03:29:06;;;;;;;38.50;33.40;;;18.50;99.90;;;;;;5056826;28;20033;-83
2023/06/21 03:31:32;;;;;;;37.22;33.20;;;18.50;99.90;;;;;;5058054;28;20084;-83
2023/06/21 03:33:57;;;;;;;37.40;30.75;;;18.50;99.90;;;;;;5061663;28;20082;-83
2023/06/21 03:36:23;;;;;;;38.20;33.20;;;18.50;99.90;;;;;;5061566;28;20045;-83
2023/06/21 03:38:48;;;;;;;37.70;33.45;;;19.60;99.90;;;;;;5057845;28;20418;-83
2023/06/21 03:41:14;;;;;;;39.92;35.50;;;18.50;99.90;;;;;;5060181;28;20134;-83
2023/06/21 03:43:40;;;;;;;36.58;32.67;;;18.60;99.90;;;;;;5058650;28;20057;-84
2023/06/21 03:46:05;;;;;;;44.08;36.67;;;18.40;99.90;;;;;;5061701;28;20154;-84
2023/06/21 03:48:31;;;;;;;45.85;39.22;;;18.50;99.90;;;;;;5060376;28;20497;-84
2023/06/21 03:50:56;;;;;;;51.95;40.67;;;18.40;99.90;;;;;;5041239;28;20488;-83
2023/06/21 03:53:22;;;;;;;39.45;34.83;;;18.40;99.90;;;;;;5039718;28;20084;-84
2023/06/21 03:55:47;;;;;;;46.10;41.20;;;18.30;99.90;;;;;;5058624;28;20544;-84
2023/06/21 03:58:13;;;;;;;45.20;37.42;;;18.40;99.90;;;;;;5059600;28;20037;-84
2023/06/21 04:00:39;;;;;;;45.25;39.92;;;19.40;99.90;;;;;;5059973;28;20048;-83
2023/06/21 04:03:04;;;;;;;43.17;38.50;;;18.50;99.90;;;;;;5059668;28;20459;-83
2023/06/21 04:05:30;;;;;;;47.15;39.40;;;18.30;99.90;;;;;;5056014;28;20051;-83
2023/06/21 04:07:55;;;;;;;53.70;42.13;;;18.80;99.90;;;;;;5060496;28;20045;-83
2023/06/21 04:10:21;;;;;;;44.42;37.78;;;18.30;99.90;;;;;;5059494;28;20416;-83
2023/06/21 04:12:47;;;;;;;43.75;38.38;;;18.30;99.90;;;;;;5058915;28;20045;-82
2023/06/21 04:15:12;;;;;;;54.03;42.55;;;18.40;99.90;;;;;;5056354;28;20534;-83
2023/06/21 04:17:38;;;;;;;58.17;44.30;;;18.30;99.90;;;;;;5058079;28;20463;-82
2023/06/21 04:20:10;;;;;;;51.05;41.92;;;18.40;99.90;;;;;;5058477;28;20076;-83
2023/06/21 04:22:40;;;;;;;55.85;44.83;;;18.30;99.90;;;;;;5061049;28;20062;-83
2023/06/21 04:25:07;;;;;;;55.70;43.17;;;18.40;99.90;;;;;;5034775;28;20037;-83
2023/06/21 04:27:33;;;;;;;46.15;41.10;;;18.40;99.90;;;;;;5059591;28;20099;-83
2023/06/21 04:30:01;;;;;;;53.03;43.28;;;18.40;99.90;;;;;;5063092;28;20028;-83
2023/06/21 04:32:32;;;;;;;50.47;40.92;;;18.40;99.90;;;;;;5064792;28;20044;-83
2023/06/21 04:35:01;;;;;;;56.92;42.80;;;18.40;99.90;;;;;;5063533;28;20082;-83
2023/06/21 04:37:28;;;;;;;48.00;38.85;;;18.40;99.90;;;;;;5066707;28;20029;-83
2023/06/21 04:39:54;;;;;;;45.10;36.58;;;18.40;99.90;;;;;;5064356;28;20496;-83
2023/06/21 04:42:20;;;;;;;43.28;35.60;;;18.40;99.90;;;;;;5058875;28;20049;-83
2023/06/21 04:44:49;;;;;;;39.85;34.35;;;18.40;99.90;;;;;;5061571;28;20076;-83
2023/06/21 04:47:16;;;;;;;48.17;34.33;;;18.40;99.90;;;;;;5061460;28;20040;-83
2023/06/21 04:49:42;;;;;;;36.03;31.85;;;18.40;99.90;;;;;;5060277;28;20434;-83
2023/06/21 04:52:12;;;;;;;42.85;31.02;;;19.20;99.90;;;;;;5049770;28;20045;-83
2023/06/21 04:54:41;;;;;;;38.05;31.17;;;18.20;99.90;;;;;;5057239;28;20049;-84
2023/06/21 04:57:12;;;;;;;35.22;28.77;;;18.90;99.90;;;;;;5062033;28;20067;-84
2023/06/21 04:59:38;;;;;;;35.47;28.90;;;18.30;99.90;;;;;;5062177;28;20582;-83
2023/06/21 05:02:04;;;;;;;38.20;28.58;;;18.30;99.90;;;;;;5058705;28;20053;-82
2023/06/21 05:04:30;;;;;;;36.88;27.33;;;18.30;99.90;;;;;;5058776;28;20033;-83
2023/06/21 05:06:56;;;;;;;38.17;28.98;;;19.50;99.90;;;;;;5057594;28;20055;-84
2023/06/21 05:09:22;;;;;;;36.22;29.33;;;18.30;99.90;;;;;;5057146;28;20123;-83
2023/06/21 05:11:47;;;;;;;36.13;26.73;;;18.30;99.90;;;;;;5057338;28;20084;-83
2023/06/21 05:14:13;;;;;;;36.80;28.88;;;18.20;99.90;;;;;;5045256;28;20041;-83
2023/06/21 05:16:40;;;;;;;39.60;28.20;;;18.30;99.90;;;;;;5043507;28;20044;-83
2023/06/21 05:19:07;;;;;;;43.42;26.40;;;18.30;99.90;;;;;;5063735;28;20056;-83
2023/06/21 05:21:34;;;;;;;37.30;25.83;;;18.30;99.90;;;;;;5066741;28;20041;-83
2023/06/21 05:23:59;;;;;;;32.75;23.65;;;18.30;99.90;;;;;;5048230;28;20132;-83
2023/06/21 05:26:25;;;;;;;35.85;25.02;;;18.20;99.90;;;;;;5061916;28;20428;-84
2023/06/21 05:28:51;;;;;;;32.70;24.85;;;18.20;99.90;;;;;;5062484;28;20045;-83
2023/06/21 05:31:16;;;;;;;27.85;23.60;;;18.30;99.90;;;;;;5062687;28;20107;-83
2023/06/21 05:33:42;;;;;;;32.83;24.35;;;18.30;99.90;;;;;;5064459;28;20618;-83
2023/06/21 05:36:10;;;;;;;33.17;23.52;;;18.30;99.90;;;;;;5061241;28;20060;-84
2023/06/21 05:38:39;;;;;;;33.13;24.33;;;18.30;99.90;;;;;;5062466;28;20048;-84
2023/06/21 05:41:05;;;;;;;34.00;24.05;;;18.40;99.90;;;;;;5063507;28;20032;-83
2023/06/21 05:43:33;;;;;;;29.23;23.15;;;18.40;99.90;;;;;;5072125;28;20555;-84
2023/06/21 05:46:06;;;;;;;32.70;24.30;;;18.40;99.90;;;;;;5069795;28;20044;-82
2023/06/21 05:48:32;;;;;;;29.63;21.77;;;18.40;99.90;;;;;;5060139;28;20552;-82
2023/06/21 05:50:57;;;;;;;29.95;21.98;;;18.40;99.90;;;;;;5043613;28;20346;-82
2023/06/21 05:53:23;;;;;;;29.73;21.70;;;18.40;99.90;;;;;;5062143;28;20044;-82
2023/06/21 05:55:49;;;;;;;32.17;22.05;;;18.40;99.90;;;;;;5062796;28;20059;-82
2023/06/21 05:58:14;;;;;;;30.90;21.33;;;18.40;99.90;;;;;;5049893;28;20120;-82
2023/06/21 06:00:40;;;;;;;25.80;19.73;;;18.40;99.90;;;;;;5060382;28;20550;-82
2023/06/21 06:03:05;;;;;;;21.95;17.50;;;18.50;99.90;;;;;;5044763;28;20059;-83
2023/06/21 06:05:31;;;;;;;26.95;17.80;;;18.40;99.90;;;;;;5061642;28;20048;-81
2023/06/21 06:07:57;;;;;;;28.58;18.50;;;18.40;99.90;;;;;;5060881;28;20462;-82
2023/06/21 06:10:22;;;;;;;25.48;18.35;;;18.40;99.90;;;;;;5058465;28;20102;-82
2023/06/21 06:12:48;;;;;;;25.52;17.30;;;18.40;99.90;;;;;;5064095;28;20107;-82
2023/06/21 06:15:14;;;;;;;23.10;17.60;;;18.40;99.90;;;;;;5072315;28;20096;-82
2023/06/21 06:17:39;;;;;;;21.98;16.85;;;18.50;99.90;;;;;;5058111;28;20141;-82
2023/06/21 06:20:06;;;;;;;25.38;17.25;;;18.50;99.90;;;;;;5060989;28;20183;-81
2023/06/21 06:22:35;;;;;;;25.20;17.15;;;18.50;99.90;;;;;;5045516;28;20036;-81
2023/06/21 06:25:01;;;;;;;20.08;17.17;;;18.50;99.90;;;;;;5060136;28;20045;-82
2023/06/21 06:27:27;;;;;;;20.30;17.33;;;18.60;99.90;;;;;;5059139;28;20044;-82
2023/06/21 06:29:52;;;;;;;23.95;17.90;;;19.80;99.90;;;;;;5059940;28;20400;-82
2023/06/21 06:32:18;;;;;;;24.17;16.63;;;18.60;99.90;;;;;;5041763;28;20040;-81
2023/06/21 06:34:44;;;;;;;24.50;16.50;;;18.60;99.90;;;;;;5057477;28;20060;-82
2023/06/21 06:37:11;;;;;;;23.25;15.82;;;18.60;99.90;;;;;;5061927;28;20547;-82
2023/06/21 06:39:37;;;;;;;20.42;15.73;;;18.80;99.90;;;;;;5062054;28;20403;-82
2023/06/21 06:42:03;;;;;;;20.92;16.17;;;18.70;99.90;;;;;;5059316;28;20037;-81
2023/06/21 06:44:28;;;;;;;21.38;13.73;;;18.80;99.90;;;;;;5052114;28;20044;-83
2023/06/21 06:46:54;;;;;;;22.40;14.13;;;19.20;99.90;;;;;;5046667;28;20056;-79
2023/06/21 06:49:19;;;;;;;19.52;15.43;;;19.10;99.90;;;;;;5042233;28;20531;-79
2023/06/21 06:51:45;;;;;;;19.20;14.10;;;18.90;99.90;;;;;;5062229;28;20052;-79
2023/06/21 06:54:11;;;;;;;20.70;13.95;;;18.90;99.90;;;;;;5048595;28;20048;-79
2023/06/21 06:56:38;;;;;;;16.45;12.68;;;18.90;99.90;;;;;;5057753;28;20068;-79
2023/06/21 06:59:04;;;;;;;17.65;12.98;;;19.00;99.90;;;;;;5060283;28;20049;-80
2023/06/21 07:01:29;;;;;;;16.40;12.45;;;19.00;99.90;;;;;;5062210;28;20060;-79
2023/06/21 07:03:56;;;;;;;18.65;12.18;;;19.00;99.90;;;;;;5053435;28;20075;-80
2023/06/21 07:06:22;;;;;;;16.88;13.40;;;19.10;99.90;;;;;;5052733;28;20400;-80
2023/06/21 07:08:47;;;;;;;15.52;11.98;;;19.20;99.90;;;;;;5057058;28;20049;-80
2023/06/21 07:11:13;;;;;;;15.70;11.80;;;19.20;99.90;;;;;;5042434;28;20047;-80
2023/06/21 07:13:39;;;;;;;15.45;12.23;;;19.20;99.90;;;;;;5056980;28;20048;-81
2023/06/21 07:16:05;;;;;;;17.85;12.65;;;19.40;99.90;;;;;;5059838;28;20044;-78
2023/06/21 07:18:30;;;;;;;16.48;11.75;;;19.30;99.90;;;;;;5054332;28;20392;-79
2023/06/21 07:20:56;;;;;;;17.10;12.88;;;19.50;99.90;;;;;;5053097;28;20072;-80
2023/06/21 07:23:22;;;;;;;13.68;12.10;;;19.30;99.90;;;;;;5053822;28;20036;-80
2023/06/21 07:25:48;;;;;;;14.77;11.55;;;19.40;99.90;;;;;;5055593;28;20056;-80
2023/06/21 07:28:13;;;;;;;15.57;11.50;;;19.50;99.90;;;;;;5057506;28;20036;-79
2023/06/21 07:30:39;;;;;;;11.50;10.30;;;19.60;99.90;;;;;;5038152;28;20536;-79
2023/06/21 07:33:08;;;;;;;12.63;11.32;;;19.60;99.90;;;;;;5038402;28;20558;-80
2023/06/21 07:35:34;;;;;;;16.33;9.82;;;19.70;99.90;;;;;;5050926;28;20052;-79
2023/06/21 07:38:00;;;;;;;15.82;9.88;;;19.70;99.90;;;;;;5059058;28;20095;-78
2023/06/21 07:40:26;;;;;;;15.05;10.05;;;19.70;99.90;;;;;;5033590;28;20111;-78
2023/06/21 07:42:51;;;;;;;13.35;9.60;;;19.70;99.90;;;;;;5043321;28;20067;-77
2023/06/21 07:45:17;;;;;;;11.73;8.63;;;19.80;99.90;;;;;;5056944;28;20124;-78
2023/06/21 07:47:43;;;;;;;12.68;9.82;;;19.80;99.90;;;;;;5048474;28;20079;-78
2023/06/21 07:50:09;;;;;;;9.98;8.98;;;19.80;99.90;;;;;;5066728;28;20037;-78
2023/06/21 07:52:34;;;;;;;10.23;8.23;;;19.90;99.90;;;;;;5053650;28;20037;-78
2023/06/21 07:55:00;;;;;;;12.50;7.85;;;20.20;99.90;;;;;;5054960;28;20059;-79
2023/06/21 07:57:26;;;;;;;12.35;8.50;;;20.00;99.90;;;;;;5049782;28;20036;-80
2023/06/21 07:59:51;;;;;;;14.90;8.57;;;19.90;99.90;;;;;;5055432;28;20076;-79
2023/06/21 08:02:18;;;;;;;12.82;7.90;;;19.90;99.90;;;;;;5053356;28;20136;-79
2023/06/21 08:04:44;;;;;;;11.18;7.78;;;20.00;99.90;;;;;;5057891;28;20072;-78
2023/06/21 08:07:10;;;;;;;11.20;8.07;;;20.80;99.90;;;;;;5047407;28;20467;-79
2023/06/21 08:09:36;;;;;;;9.82;7.15;;;20.00;99.90;;;;;;5042459;28;20071;-77
2023/06/21 08:12:01;;;;;;;8.38;7.10;;;20.00;99.90;;;;;;5034025;28;20045;-77
2023/06/21 08:14:27;;;;;;;9.90;7.40;;;20.10;99.90;;;;;;5060749;28;20488;-79
2023/06/21 08:16:53;;;;;;;9.55;7.63;;;20.10;99.90;;;;;;5047917;28;20445;-77
2023/06/21 08:19:19;;;;;;;9.43;6.95;;;20.10;99.90;;;;;;5053264;28;20041;-77
2023/06/21 08:21:45;;;;;;;11.70;8.00;;;20.10;99.90;;;;;;5051986;28;20051;-78
2023/06/21 08:24:10;;;;;;;9.65;7.90;;;20.60;99.90;;;;;;5056318;28;20045;-77
2023/06/21 08:26:36;;;;;;;8.50;7.35;;;20.30;99.90;;;;;;5054184;28;20486;-77
2023/06/21 08:29:02;;;;;;;9.18;7.93;;;20.70;99.90;;;;;;5060397;28;20052;-77
2023/06/21 08:31:28;;;;;;;12.00;8.07;;;20.40;99.90;;;;;;5057226;28;20045;-76
2023/06/21 08:33:53;;;;;;;8.98;8.07;;;20.50;99.90;;;;;;5052425;28;20033;-76
2023/06/21 08:36:19;;;;;;;13.15;8.68;;;20.50;99.90;;;;;;5057804;28;20048;-76
2023/06/21 08:38:45;;;;;;;8.32;7.45;;;20.60;99.90;;;;;;5049771;28;20391;-76
2023/06/21 08:41:11;;;;;;;11.60;7.65;;;20.60;99.90;;;;;;5023335;28;20044;-76
2023/06/21 08:43:38;;;;;;;10.30;8.45;;;20.70;99.90;;;;;;5056987;28;20041;-76
2023/06/21 08:46:08;;;;;;;10.35;8.23;;;21.60;99.90;;;;;;5033645;28;20510;-76
2023/06/21 08:48:36;;;;;;;8.65;7.53;;;20.80;99.90;;;;;;5029338;28;20060;-76
2023/06/21 08:51:05;;;;;;;11.35;7.32;;;20.80;99.90;;;;;;5055839;28;20041;-76
2023/06/21 08:53:50;;;;;;;13.10;7.78;;;20.80;99.90;;;;;;5042427;28;20036;-76
2023/06/21 08:56:22;;;;;;;8.98;6.93;;;21.20;99.90;;;;;;5033698;28;20094;-76
2023/06/21 08:59:02;;;;;;;9.52;7.03;;;20.90;99.90;;;;;;5052628;28;20060;-75
2023/06/21 09:01:32;;;;;;;7.80;6.90;;;20.90;99.90;;;;;;5049233;28;20725;-75
2023/06/21 09:03:58;;;;;;;11.52;8.05;;;20.90;99.90;;;;;;5032183;28;20070;-76
2023/06/21 09:06:26;;;;;;;10.07;7.20;;;21.60;99.90;;;;;;5052010;28;20488;-77
2023/06/21 09:08:55;;;;;;;8.45;5.82;;;21.20;99.90;;;;;;5048284;28;20041;-76
2023/06/21 09:11:22;;;;;;;9.45;6.68;;;21.30;99.90;;;;;;5048049;28;20029;-85
2023/06/21 09:13:49;;;;;;;7.63;6.38;;;21.50;99.90;;;;;;5049091;28;20041;-76
2023/06/21 09:16:14;;;;;;;9.43;6.75;;;21.30;99.90;;;;;;5022866;28;20045;-77
2023/06/21 09:18:40;;;;;;;8.80;6.50;;;21.40;99.90;;;;;;5043419;28;20041;-76
2023/06/21 09:21:10;;;;;;;5.90;5.25;;;21.50;99.90;;;;;;5040218;28;20135;-76
2023/06/21 09:23:38;;;;;;;7.80;4.30;;;21.60;99.90;;;;;;5040097;28;20101;-76
2023/06/21 09:26:04;;;;;;;8.52;4.32;;;21.60;99.90;;;;;;5024000;28;20048;-79
2023/06/21 09:28:30;;;;;;;7.05;5.55;;;21.70;99.90;;;;;;5033123;28;20116;-79
2023/06/21 09:30:56;;;;;;;7.25;5.88;;;21.60;99.90;;;;;;5044929;28;20509;-78
2023/06/21 09:33:24;;;;;;;5.78;5.18;;;21.60;99.90;;;;;;5036782;28;20046;-78
2023/06/21 09:35:50;;;;;;;4.70;4.07;;;21.70;99.90;;;;;;5012572;28;20055;-77
2023/06/21 09:38:36;;;;;;;3.60;3.20;;;21.70;99.90;;;;;;5025788;28;20030;-73
2023/06/21 09:41:05;;;;;;;4.47;4.07;;;21.70;99.90;;;;;;5038565;28;20604;-73
2023/06/21 09:43:32;;;;;;;4.90;3.55;;;21.80;99.90;;;;;;5040391;28;20167;-76
2023/06/21 09:46:05;;;;;;;6.25;4.43;;;22.70;99.90;;;;;;5045052;28;20252;-75
2023/06/21 09:48:35;;;;;;;5.80;5.27;;;21.90;99.90;;;;;;5047345;28;20053;-74
2023/06/21 09:51:05;;;;;;;6.32;4.88;;;22.00;99.90;;;;;;5043650;28;20837;-74
2023/06/21 09:53:31;;;;;;;5.63;4.47;;;22.00;99.90;;;;;;5046902;28;20133;-74
2023/06/21 09:55:59;;;;;;;4.10;3.75;;;22.00;99.90;;;;;;5045645;28;20132;-74
2023/06/21 09:58:25;;;;;;;7.45;4.18;;;22.20;99.90;;;;;;5045673;28;20041;-75
2023/06/21 10:00:51;;;;;;;4.97;3.60;;;22.20;99.90;;;;;;5035836;28;20458;-75
2023/06/21 10:03:24;;;;;;;6.88;4.00;;;22.30;99.90;;;;;;5056051;28;20073;-76
2023/06/21 10:06:01;;;;;;;5.93;4.85;;;22.30;99.90;;;;;;5057881;28;20036;-74
2023/06/21 10:08:28;;;;;;;5.95;4.20;;;22.30;99.90;;;;;;5039878;28;20117;-76
2023/06/21 10:10:54;;;;;;;4.82;4.43;;;22.20;99.90;;;;;;5042405;28;20043;-74
2023/06/21 10:13:28;;;;;;;6.57;4.32;;;22.20;99.90;;;;;;5059386;28;20048;-75
2023/06/21 10:15:55;;;;;;;;;;;22.20;99.90;;;;;;5059843;28;20048;-74
2023/06/21 10:18:21;;;;;;;6.22;3.13;;;22.20;99.90;;;;;;5043693;28;19928;-74
2023/06/21 10:21:00;;;;;;;4.03;3.55;;;22.20;99.90;;;;;;5051390;28;20032;-82
2023/06/21 10:23:31;;;;;;;4.40;3.88;;;22.20;99.90;;;;;;5043960;28;20040;-81
2023/06/21 10:26:06;;;;;;;6.38;4.70;;;22.40;99.90;;;;;;5058012;28;20120;-82
2023/06/21 10:28:41;;;;;;;4.35;3.97;;;22.50;99.90;;;;;;5058857;28;20421;-82
2023/06/21 10:31:12;;;;;;;5.00;2.92;;;22.60;99.90;;;;;;5062960;28;20033;-82
2023/06/21 10:33:39;;;;;;;4.32;3.72;;;22.70;99.90;;;;;;5053137;28;20095;-82
2023/06/21 10:36:10;;;;;;;3.85;3.55;;;22.80;99.90;;;;;;5061715;28;20582;-82
2023/06/21 10:38:50;;;;;;;6.40;4.07;;;22.80;99.90;;;;;;5058939;28;20605;-82
2023/06/21 10:41:20;;;;;;;5.00;3.65;;;22.70;99.90;;;;;;5061825;28;20400;-82
2023/06/21 10:43:47;;;;;;;6.07;4.45;;;22.80;99.90;;;;;;5042478;28;20484;-83
2023/06/21 10:46:14;;;;;;;6.82;4.97;;;22.70;99.90;;;;;;5092128;28;20040;-81
2023/06/21 10:48:41;;;;;;;6.20;4.43;;;22.60;99.90;;;;;;5059009;28;20478;-83
2023/06/21 10:51:07;;;;;;;6.80;4.00;;;22.50;99.90;;;;;;5059568;28;20551;-81
2023/06/21 10:53:34;;;;;;;4.38;3.53;;;22.50;99.90;;;;;;5043095;28;20106;-83
2023/06/21 10:56:01;;;;;;;5.68;3.83;;;22.40;99.90;;;;;;5062687;28;20090;-83
2023/06/21 10:58:28;;;;;;;6.00;3.60;;;22.50;99.90;;;;;;5060525;28;20032;-82
2023/06/21 11:00:55;;;;;;;6.28;3.72;;;22.50;99.90;;;;;;5041736;28;20036;-83
2023/06/21 11:03:26;;;;;;;4.07;3.65;;;22.70;99.90;;;;;;5070081;28;20045;-83
2023/06/21 11:06:15;;;;;;;6.97;3.90;;;22.70;99.90;;;;;;5057130;28;20075;-82
2023/06/21 11:08:41;;;;;;;5.28;3.58;;;22.70;99.90;;;;;;5059758;28;20051;-82
2023/06/21 11:11:07;;;;;;;7.88;4.15;;;22.70;99.90;;;;;;5062146;28;20127;-83
2023/06/21 11:13:35;;;;;;;5.35;3.88;;;22.70;99.90;;;;;;5060881;28;20047;-82
2023/06/21 11:16:16;;;;;;;3.88;3.00;;;22.80;99.90;;;;;;5058095;28;20044;-84
2023/06/21 11:18:55;;;;;;;3.05;2.60;;;22.80;99.90;;;;;;5059763;28;20052;-82
2023/06/21 11:21:46;;;;;;;3.78;3.20;;;22.80;99.90;;;;;;5060312;28;20082;-83
2023/06/21 11:24:15;;;;;;;4.95;2.65;;;22.90;99.90;;;;;;5055546;28;20075;-79
2023/06/21 11:27:05;;;;;;;4.30;2.60;;;23.10;99.90;;;;;;5060119;28;20095;-82
2023/06/21 11:29:33;;;;;;;3.53;3.03;;;23.10;99.90;;;;;;5070750;22;20045;-81
2023/06/21 11:32:18;;;;;;;4.82;3.78;;;23.20;99.90;;;;;;5067101;28;20044;-81
2023/06/21 11:34:56;;;;;;;6.70;4.07;;;23.20;99.90;;;;;;5069504;28;20064;-81
2023/06/21 11:37:35;;;;;;;4.38;3.20;;;23.20;99.90;;;;;;5067726;28;20036;-81
2023/06/21 11:40:03;;;;;;;4.30;3.50;;;24.10;99.90;;;;;;5044978;28;20050;-82
2023/06/21 11:42:34;;;;;;;4.97;2.88;;;23.20;99.90;;;;;;5071196;28;20045;-82
2023/06/21 11:45:32;;;;;;;4.50;3.83;;;23.50;99.90;;;;;;5067885;28;20043;-81
2023/06/21 11:48:13;;;;;;;3.75;2.95;;;23.60;99.90;;;;;;5062475;28;20067;-80
2023/06/21 11:50:48;;;;;;;4.78;2.83;;;23.60;99.90;;;;;;5069515;28;20495;-80
2023/06/21 11:53:22;;;;;;;4.30;2.95;;;23.70;99.90;;;;;;5069375;28;20052;-81
2023/06/21 11:55:57;;;;;;;5.07;4.30;;;23.90;99.90;;;;;;5069976;28;20541;-82
2023/06/21 11:58:23;;;;;;;3.65;3.35;;;24.00;99.90;;;;;;5050589;28;20462;-81
2023/06/21 12:00:49;;;;;;;5.22;3.25;;;24.10;99.90;;;;;;5069901;28;20043;-80
2023/06/21 12:03:16;;;;;;;4.22;3.53;;;24.20;99.90;;;;;;5069225;28;20040;-80
2023/06/21 12:05:43;;;;;;;3.15;2.95;;;24.20;99.90;;;;;;5051222;28;20074;-81
2023/06/21 12:08:09;;;;;;;3.60;3.15;;;24.30;99.90;;;;;;5069126;28;20044;-81
2023/06/21 12:10:35;;;;;;;5.32;3.22;;;24.50;99.90;;;;;;5069296;28;20558;-81
2023/06/21 12:13:05;;;;;;;4.05;2.28;;;24.60;99.90;;;;;;5068849;28;20032;-81
2023/06/21 12:15:31;;;;;;;4.25;2.50;;;24.70;99.90;;;;;;5068236;28;20537;-80
2023/06/21 12:17:56;;;;;;;2.65;2.45;;;25.40;99.90;;;;;;5068583;28;20037;-81
2023/06/21 12:20:22;;;;;;;4.07;2.58;;;24.80;99.90;;;;;;5067667;28;20033;-81
2023/06/21 12:22:48;;;;;;;2.75;2.50;;;24.80;99.90;;;;;;5069594;28;20044;-81
2023/06/21 12:25:14;;;;;;;3.50;2.45;;;24.80;99.90;;;;;;5067128;28;20495;-81
2023/06/21 12:27:56;;;;;;;4.07;3.33;;;24.80;99.90;;;;;;5069605;28;20488;-81
2023/06/21 12:30:22;;;;;;;4.10;2.95;;;24.90;99.90;;;;;;5050774;28;20472;-81
2023/06/21 12:32:49;;;;;;;3.13;2.53;;;24.90;99.90;;;;;;5067132;28;20051;-80
2023/06/21 12:35:20;;;;;;;3.67;2.60;;;24.90;99.90;;;;;;5068777;28;20166;-80
2023/06/21 12:37:46;;;;;;;4.20;2.80;;;24.90;99.90;;;;;;5072438;28;20049;-80
2023/06/21 12:40:17;;;;;;;3.55;2.65;;;24.80;99.90;;;;;;5077191;28;20337;-80